sensor_id;sensor_type;location;lat;lon;timestamp;pressure;altitude;pressure_sealevel;temperature;humidity
35848;BME280;22332;51.954;20.118;2023-11-19T00:01:34;100806.02;;;2.40;85.52
35848;BME280;22332;51.954;20.118;2023-11-19T00:04:39;100803.29;;;2.41;85.70
35848;BME280;22332;51.954;20.118;2023-11-19T00:07:45;100797.10;;;2.45;85.64
35848;BME280;22332;51.954;20.118;2023-11-19T00:10:50;100793.44;;;2.48;85.56
35848;BME280;22332;51.954;20.118;2023-11-19T00:13:56;100784.44;;;2.49;85.47
35848;BME280;22332;51.954;20.118;2023-11-19T00:17:01;100779.48;;;2.49;85.45
35848;BME280;22332;51.954;20.118;2023-11-19T00:20:10;100774.80;;;2.48;85.44
35848;BME280;22332;51.954;20.118;2023-11-19T00:23:16;100768.04;;;2.47;85.47
35848;BME280;22332;51.954;20.118;2023-11-19T00:26:21;100760.84;;;2.50;85.46
35848;BME280;22332;51.954;20.118;2023-11-19T00:29:28;100765.09;;;2.55;85.68
35848;BME280;22332;51.954;20.118;2023-11-19T00:32:33;100768.27;;;2.61;85.58
35848;BME280;22332;51.954;20.118;2023-11-19T00:35:40;100764.13;;;2.63;85.50
35848;BME280;22332;51.954;20.118;2023-11-19T00:38:46;100761.02;;;2.65;85.63
35848;BME280;22332;51.954;20.118;2023-11-19T00:41:51;100761.15;;;2.66;85.59
35848;BME280;22332;51.954;20.118;2023-11-19T00:44:57;100758.64;;;2.63;85.57
35848;BME280;22332;51.954;20.118;2023-11-19T00:48:02;100750.06;;;2.63;85.59
35848;BME280;22332;51.954;20.118;2023-11-19T00:51:08;100740.54;;;2.64;85.68
35848;BME280;22332;51.954;20.118;2023-11-19T00:54:15;100735.36;;;2.62;85.49
35848;BME280;22332;51.954;20.118;2023-11-19T00:57:20;100730.83;;;2.59;85.54
35848;BME280;22332;51.954;20.118;2023-11-19T01:00:26;100723.91;;;2.60;85.52
35848;BME280;22332;51.954;20.118;2023-11-19T01:03:31;100716.86;;;2.63;85.60
35848;BME280;22332;51.954;20.118;2023-11-19T01:06:37;100717.73;;;2.69;85.53
35848;BME280;22332;51.954;20.118;2023-11-19T01:09:44;100709.63;;;2.72;85.68
35848;BME280;22332;51.954;20.118;2023-11-19T01:12:50;100708.95;;;2.75;85.64
35848;BME280;22332;51.954;20.118;2023-11-19T01:15:56;100704.54;;;2.75;85.48
35848;BME280;22332;51.954;20.118;2023-11-19T01:19:01;100702.50;;;2.74;85.35
35848;BME280;22332;51.954;20.118;2023-11-19T01:22:11;100695.27;;;2.71;85.47
35848;BME280;22332;51.954;20.118;2023-11-19T01:25:17;100689.02;;;2.70;85.36
35848;BME280;22332;51.954;20.118;2023-11-19T01:28:23;100680.54;;;2.65;85.34
35848;BME280;22332;51.954;20.118;2023-11-19T01:31:28;100683.80;;;2.61;85.43
35848;BME280;22332;51.954;20.118;2023-11-19T01:34:34;100677.29;;;2.58;85.48
35848;BME280;22332;51.954;20.118;2023-11-19T01:37:40;100680.40;;;2.59;85.51
35848;BME280;22332;51.954;20.118;2023-11-19T01:40:45;100678.16;;;2.61;85.39
35848;BME280;22332;51.954;20.118;2023-11-19T01:43:51;100674.98;;;2.64;85.46
35848;BME280;22332;51.954;20.118;2023-11-19T01:46:57;100671.00;;;2.72;85.50
35848;BME280;22332;51.954;20.118;2023-11-19T01:50:03;100667.58;;;2.79;85.38
35848;BME280;22332;51.954;20.118;2023-11-19T01:53:11;100657.97;;;2.81;85.32
35848;BME280;22332;51.954;20.118;2023-11-19T01:56:17;100649.52;;;2.84;85.30
35848;BME280;22332;51.954;20.118;2023-11-19T01:59:23;100631.23;;;2.84;85.17
35848;BME280;22332;51.954;20.118;2023-11-19T02:02:31;100630.09;;;2.83;85.26
35848;BME280;22332;51.954;20.118;2023-11-19T02:05:36;100630.61;;;2.81;85.05
35848;BME280;22332;51.954;20.118;2023-11-19T02:08:42;100633.98;;;2.77;85.05
35848;BME280;22332;51.954;20.118;2023-11-19T02:11:48;100636.15;;;2.73;85.18
35848;BME280;22332;51.954;20.118;2023-11-19T02:14:56;100638.73;;;2.68;85.22
35848;BME280;22332;51.954;20.118;2023-11-19T02:18:23;100636.90;;;2.66;85.25
35848;BME280;22332;51.954;20.118;2023-11-19T02:21:32;100643.88;;;2.70;85.49
35848;BME280;22332;51.954;20.118;2023-11-19T02:24:38;100636.08;;;2.74;85.35
35848;BME280;22332;51.954;20.118;2023-11-19T02:27:50;100634.17;;;2.80;85.35
35848;BME280;22332;51.954;20.118;2023-11-19T02:30:59;100623.90;;;2.81;85.23
35848;BME280;22332;51.954;20.118;2023-11-19T02:34:05;100619.68;;;2.81;85.02
35848;BME280;22332;51.954;20.118;2023-11-19T02:37:11;100606.61;;;2.80;85.10
35848;BME280;22332;51.954;20.118;2023-11-19T02:40:17;100600.28;;;2.80;85.26
35848;BME280;22332;51.954;20.118;2023-11-19T02:43:22;100594.84;;;2.80;85.20
35848;BME280;22332;51.954;20.118;2023-11-19T02:46:28;100587.17;;;2.79;85.07
35848;BME280;22332;51.954;20.118;2023-11-19T02:49:33;100580.14;;;2.75;85.15
35848;BME280;22332;51.954;20.118;2023-11-19T02:52:41;100577.59;;;2.74;85.03
35848;BME280;22332;51.954;20.118;2023-11-19T02:55:47;100577.82;;;2.73;85.26
35848;BME280;22332;51.954;20.118;2023-11-19T02:58:54;100567.77;;;2.77;85.31
35848;BME280;22332;51.954;20.118;2023-11-19T03:02:00;100560.23;;;2.82;85.24
35848;BME280;22332;51.954;20.118;2023-11-19T03:05:06;100544.03;;;2.86;85.19
35848;BME280;22332;51.954;20.118;2023-11-19T03:08:12;100535.31;;;2.87;85.27
35848;BME280;22332;51.954;20.118;2023-11-19T03:11:18;100526.63;;;2.86;84.89
35848;BME280;22332;51.954;20.118;2023-11-19T03:14:23;100515.60;;;2.85;85.22
35848;BME280;22332;51.954;20.118;2023-11-19T03:17:29;100505.52;;;2.84;85.07
35848;BME280;22332;51.954;20.118;2023-11-19T03:20:34;100501.47;;;2.81;84.98
35848;BME280;22332;51.954;20.118;2023-11-19T03:23:41;100488.20;;;2.73;84.97
35848;BME280;22332;51.954;20.118;2023-11-19T03:26:50;100476.39;;;2.69;85.01
35848;BME280;22332;51.954;20.118;2023-11-19T03:29:55;100475.86;;;2.63;85.03
35848;BME280;22332;51.954;20.118;2023-11-19T03:33:01;100480.95;;;2.60;85.24
35848;BME280;22332;51.954;20.118;2023-11-19T03:36:08;100479.11;;;2.65;85.06
35848;BME280;22332;51.954;20.118;2023-11-19T03:39:14;100478.02;;;2.70;85.29
35848;BME280;22332;51.954;20.118;2023-11-19T03:42:20;100480.65;;;2.76;85.07
35848;BME280;22332;51.954;20.118;2023-11-19T03:45:26;100484.64;;;2.80;85.06
35848;BME280;22332;51.954;20.118;2023-11-19T03:48:31;100486.39;;;2.80;85.01
35848;BME280;22332;51.954;20.118;2023-11-19T03:51:37;100478.86;;;2.83;85.07
35848;BME280;22332;51.954;20.118;2023-11-19T03:54:42;100472.76;;;2.85;84.98
35848;BME280;22332;51.954;20.118;2023-11-19T03:57:48;100468.85;;;2.83;84.95
35848;BME280;22332;51.954;20.118;2023-11-19T04:00:53;100457.64;;;2.79;84.90
35848;BME280;22332;51.954;20.118;2023-11-19T04:03:59;100447.58;;;2.77;85.03
35848;BME280;22332;51.954;20.118;2023-11-19T04:07:05;100450.75;;;2.74;85.08
35848;BME280;22332;51.954;20.118;2023-11-19T04:10:11;100439.88;;;2.71;85.05
35848;BME280;22332;51.954;20.118;2023-11-19T04:13:16;100432.84;;;2.68;85.10
35848;BME280;22332;51.954;20.118;2023-11-19T04:16:27;100425.35;;;2.65;85.04
35848;BME280;22332;51.954;20.118;2023-11-19T04:19:33;100425.52;;;2.68;85.14
35848;BME280;22332;51.954;20.118;2023-11-19T04:22:39;100426.54;;;2.74;85.17
35848;BME280;22332;51.954;20.118;2023-11-19T04:25:45;100430.48;;;2.79;85.20
35848;BME280;22332;51.954;20.118;2023-11-19T04:28:50;100422.70;;;2.85;85.14
35848;BME280;22332;51.954;20.118;2023-11-19T04:31:56;100422.13;;;2.88;84.94
35848;BME280;22332;51.954;20.118;2023-11-19T04:35:02;100417.57;;;2.90;84.85
35848;BME280;22332;51.954;20.118;2023-11-19T04:38:08;100413.52;;;2.90;84.75
35848;BME280;22332;51.954;20.118;2023-11-19T04:41:13;100405.25;;;2.88;84.72
35848;BME280;22332;51.954;20.118;2023-11-19T04:44:19;100395.27;;;2.85;84.73
35848;BME280;22332;51.954;20.118;2023-11-19T04:47:24;100387.84;;;2.83;84.94
35848;BME280;22332;51.954;20.118;2023-11-19T04:50:30;100384.53;;;2.80;84.76
35848;BME280;22332;51.954;20.118;2023-11-19T04:53:35;100380.38;;;2.76;85.02
35848;BME280;22332;51.954;20.118;2023-11-19T04:56:44;100374.98;;;2.75;85.07
35848;BME280;22332;51.954;20.118;2023-11-19T04:59:50;100373.64;;;2.74;85.14
35848;BME280;22332;51.954;20.118;2023-11-19T05:02:55;100369.77;;;2.77;85.03
35848;BME280;22332;51.954;20.118;2023-11-19T05:06:01;100365.06;;;2.82;84.99
35848;BME280;22332;51.954;20.118;2023-11-19T05:09:07;100359.92;;;2.88;84.87
35848;BME280;22332;51.954;20.118;2023-11-19T05:12:13;100358.50;;;2.91;84.63
35848;BME280;22332;51.954;20.118;2023-11-19T05:15:19;100354.52;;;2.93;84.82
35848;BME280;22332;51.954;20.118;2023-11-19T05:18:25;100341.05;;;2.91;84.59
35848;BME280;22332;51.954;20.118;2023-11-19T05:21:30;100336.77;;;2.90;84.80
35848;BME280;22332;51.954;20.118;2023-11-19T05:24:36;100335.73;;;2.87;84.75
35848;BME280;22332;51.954;20.118;2023-11-19T05:27:42;100333.83;;;2.84;84.87
35848;BME280;22332;51.954;20.118;2023-11-19T05:30:48;100329.66;;;2.81;84.80
35848;BME280;22332;51.954;20.118;2023-11-19T05:33:54;100324.62;;;2.77;84.63
35848;BME280;22332;51.954;20.118;2023-11-19T05:37:00;100321.55;;;2.73;84.89
35848;BME280;22332;51.954;20.118;2023-11-19T05:40:07;100320.21;;;2.72;84.68
35848;BME280;22332;51.954;20.118;2023-11-19T05:43:18;100311.49;;;2.71;84.85
35848;BME280;22332;51.954;20.118;2023-11-19T05:46:24;100306.35;;;2.72;84.90
35848;BME280;22332;51.954;20.118;2023-11-19T05:49:31;100306.45;;;2.75;84.70
35848;BME280;22332;51.954;20.118;2023-11-19T05:52:37;100307.48;;;2.76;84.70
35848;BME280;22332;51.954;20.118;2023-11-19T05:55:43;100304.02;;;2.75;84.66
35848;BME280;22332;51.954;20.118;2023-11-19T05:58:53;100307.74;;;2.74;84.62
35848;BME280;22332;51.954;20.118;2023-11-19T06:02:00;100308.27;;;2.74;84.82
35848;BME280;22332;51.954;20.118;2023-11-19T06:05:07;100312.08;;;2.75;84.72
35848;BME280;22332;51.954;20.118;2023-11-19T06:08:13;100312.31;;;2.72;84.58
35848;BME280;22332;51.954;20.118;2023-11-19T06:11:19;100307.21;;;2.67;84.60
35848;BME280;22332;51.954;20.118;2023-11-19T06:14:25;100302.23;;;2.62;84.71
35848;BME280;22332;51.954;20.118;2023-11-19T06:17:30;100292.10;;;2.64;84.77
35848;BME280;22332;51.954;20.118;2023-11-19T06:20:36;100290.26;;;2.70;84.88
35848;BME280;22332;51.954;20.118;2023-11-19T06:23:42;100285.96;;;2.77;84.73
35848;BME280;22332;51.954;20.118;2023-11-19T06:26:48;100278.13;;;2.84;84.56
35848;BME280;22332;51.954;20.118;2023-11-19T06:29:54;100271.18;;;2.88;84.71
35848;BME280;22332;51.954;20.118;2023-11-19T06:32:59;100266.24;;;2.91;84.68
35848;BME280;22332;51.954;20.118;2023-11-19T06:36:07;100261.85;;;2.91;84.46
35848;BME280;22332;51.954;20.118;2023-11-19T06:39:13;100262.68;;;2.89;84.53
35848;BME280;22332;51.954;20.118;2023-11-19T06:42:19;100255.72;;;2.88;84.54
35848;BME280;22332;51.954;20.118;2023-11-19T06:45:29;100251.34;;;2.86;84.59
35848;BME280;22332;51.954;20.118;2023-11-19T06:48:34;100244.41;;;2.82;84.48
35848;BME280;22332;51.954;20.118;2023-11-19T06:51:43;100244.98;;;2.78;84.59
35848;BME280;22332;51.954;20.118;2023-11-19T06:54:51;100246.29;;;2.74;84.60
35848;BME280;22332;51.954;20.118;2023-11-19T06:57:56;100244.95;;;2.73;84.82
35848;BME280;22332;51.954;20.118;2023-11-19T07:01:06;100240.91;;;2.73;84.69
35848;BME280;22332;51.954;20.118;2023-11-19T07:04:13;100232.92;;;2.80;84.83
35848;BME280;22332;51.954;20.118;2023-11-19T07:07:18;100228.81;;;2.88;84.80
35848;BME280;22332;51.954;20.118;2023-11-19T07:10:24;100225.38;;;2.98;84.67
35848;BME280;22332;51.954;20.118;2023-11-19T07:13:29;100225.85;;;3.04;84.71
35848;BME280;22332;51.954;20.118;2023-11-19T07:16:35;100222.48;;;3.06;84.43
35848;BME280;22332;51.954;20.118;2023-11-19T07:19:42;100214.73;;;3.09;84.40
35848;BME280;22332;51.954;20.118;2023-11-19T07:22:48;100211.30;;;3.08;84.51
35848;BME280;22332;51.954;20.118;2023-11-19T07:25:53;100208.17;;;3.08;84.36
35848;BME280;22332;51.954;20.118;2023-11-19T07:28:59;100203.11;;;3.04;84.39
35848;BME280;22332;51.954;20.118;2023-11-19T07:32:06;100201.84;;;3.03;84.31
35848;BME280;22332;51.954;20.118;2023-11-19T07:35:12;100198.19;;;3.00;84.48
35848;BME280;22332;51.954;20.118;2023-11-19T07:38:18;100190.99;;;2.97;84.38
35848;BME280;22332;51.954;20.118;2023-11-19T07:41:23;100188.23;;;2.99;84.41
35848;BME280;22332;51.954;20.118;2023-11-19T07:44:29;100189.48;;;3.01;84.57
35848;BME280;22332;51.954;20.118;2023-11-19T07:47:35;100171.01;;;3.04;84.32
35848;BME280;22332;51.954;20.118;2023-11-19T07:50:41;100168.14;;;3.09;84.16
35848;BME280;22332;51.954;20.118;2023-11-19T07:53:46;100171.45;;;3.15;84.19
35848;BME280;22332;51.954;20.118;2023-11-19T07:56:52;100164.20;;;3.21;84.42
35848;BME280;22332;51.954;20.118;2023-11-19T07:59:58;100154.18;;;3.26;84.32
35848;BME280;22332;51.954;20.118;2023-11-19T08:03:05;100149.71;;;3.29;84.28
35848;BME280;22332;51.954;20.118;2023-11-19T08:06:11;100154.02;;;3.36;84.15
35848;BME280;22332;51.954;20.118;2023-11-19T08:09:17;100154.29;;;3.37;84.31
35848;BME280;22332;51.954;20.118;2023-11-19T08:12:22;100153.91;;;3.39;84.31
35848;BME280;22332;51.954;20.118;2023-11-19T08:15:28;100147.35;;;3.45;84.31
35848;BME280;22332;51.954;20.118;2023-11-19T08:18:33;100142.71;;;3.51;84.25
35848;BME280;22332;51.954;20.118;2023-11-19T08:21:39;100129.52;;;3.56;84.22
35848;BME280;22332;51.954;20.118;2023-11-19T08:24:44;100124.70;;;3.59;84.16
35848;BME280;22332;51.954;20.118;2023-11-19T08:27:50;100119.02;;;3.62;84.11
35848;BME280;22332;51.954;20.118;2023-11-19T08:30:55;100114.55;;;3.61;83.83
35848;BME280;22332;51.954;20.118;2023-11-19T08:34:01;100106.48;;;3.61;83.80
35848;BME280;22332;51.954;20.118;2023-11-19T08:37:07;100099.47;;;3.58;83.77
35848;BME280;22332;51.954;20.118;2023-11-19T08:40:13;100087.69;;;3.53;83.51
35848;BME280;22332;51.954;20.118;2023-11-19T08:43:19;100089.41;;;3.51;83.71
35848;BME280;22332;51.954;20.118;2023-11-19T08:46:24;100084.47;;;3.51;83.87
35848;BME280;22332;51.954;20.118;2023-11-19T08:49:30;100078.48;;;3.54;83.87
35848;BME280;22332;51.954;20.118;2023-11-19T08:52:36;100075.34;;;3.59;83.86
35848;BME280;22332;51.954;20.118;2023-11-19T08:55:41;100069.38;;;3.63;83.30
35848;BME280;22332;51.954;20.118;2023-11-19T08:58:47;100062.38;;;3.67;83.44
35848;BME280;22332;51.954;20.118;2023-11-19T09:01:52;100053.40;;;3.70;83.34
35848;BME280;22332;51.954;20.118;2023-11-19T09:04:58;100055.60;;;3.69;83.17
35848;BME280;22332;51.954;20.118;2023-11-19T09:08:04;100058.52;;;3.67;83.29
35848;BME280;22332;51.954;20.118;2023-11-19T09:11:12;100056.25;;;3.64;83.22
35848;BME280;22332;51.954;20.118;2023-11-19T09:14:18;100050.91;;;3.61;83.19
35848;BME280;22332;51.954;20.118;2023-11-19T09:17:28;100038.30;;;3.55;83.15
35848;BME280;22332;51.954;20.118;2023-11-19T09:20:34;100025.58;;;3.51;83.37
35848;BME280;22332;51.954;20.118;2023-11-19T09:23:42;100015.27;;;3.52;83.05
35848;BME280;22332;51.954;20.118;2023-11-19T09:26:49;100013.31;;;3.58;83.23
35848;BME280;22332;51.954;20.118;2023-11-19T09:29:55;100010.33;;;3.67;83.30
35848;BME280;22332;51.954;20.118;2023-11-19T09:33:01;99998.86;;;3.79;83.23
35848;BME280;22332;51.954;20.118;2023-11-19T09:36:08;99994.48;;;3.86;83.00
35848;BME280;22332;51.954;20.118;2023-11-19T09:39:15;99993.77;;;3.90;82.91
35848;BME280;22332;51.954;20.118;2023-11-19T09:42:22;99987.22;;;3.93;82.64
35848;BME280;22332;51.954;20.118;2023-11-19T09:45:30;99983.76;;;3.90;82.24
35848;BME280;22332;51.954;20.118;2023-11-19T09:48:38;99981.66;;;3.85;82.23
35848;BME280;22332;51.954;20.118;2023-11-19T09:51:44;99977.67;;;3.82;82.50
35848;BME280;22332;51.954;20.118;2023-11-19T09:54:50;99976.21;;;3.83;82.29
35848;BME280;22332;51.954;20.118;2023-11-19T09:57:56;99972.71;;;3.83;82.39
35848;BME280;22332;51.954;20.118;2023-11-19T10:01:05;99962.17;;;3.81;82.39
35848;BME280;22332;51.954;20.118;2023-11-19T10:04:13;99954.39;;;3.83;82.60
35848;BME280;22332;51.954;20.118;2023-11-19T10:07:20;99948.91;;;3.88;82.22
35848;BME280;22332;51.954;20.118;2023-11-19T10:10:26;99938.48;;;3.93;82.40
35848;BME280;22332;51.954;20.118;2023-11-19T10:13:32;99931.27;;;3.98;82.31
35848;BME280;22332;51.954;20.118;2023-11-19T10:16:42;99927.70;;;4.03;82.47
35848;BME280;22332;51.954;20.118;2023-11-19T10:19:50;99922.80;;;4.05;82.30
35848;BME280;22332;51.954;20.118;2023-11-19T10:22:56;99909.35;;;4.01;82.06
35848;BME280;22332;51.954;20.118;2023-11-19T10:26:05;99902.41;;;3.98;81.92
35848;BME280;22332;51.954;20.118;2023-11-19T10:29:13;99897.16;;;3.96;82.04
35848;BME280;22332;51.954;20.118;2023-11-19T10:32:20;99888.95;;;3.92;82.16
35848;BME280;22332;51.954;20.118;2023-11-19T10:35:25;99880.29;;;3.88;82.22
35848;BME280;22332;51.954;20.118;2023-11-19T10:38:31;99868.63;;;3.89;82.45
35848;BME280;22332;51.954;20.118;2023-11-19T10:41:36;99854.59;;;3.88;82.21
35848;BME280;22332;51.954;20.118;2023-11-19T10:44:42;99848.92;;;3.86;82.22
35848;BME280;22332;51.954;20.118;2023-11-19T10:47:48;99843.88;;;3.88;82.32
35848;BME280;22332;51.954;20.118;2023-11-19T10:50:55;99835.44;;;3.92;82.08
35848;BME280;22332;51.954;20.118;2023-11-19T10:54:03;99830.42;;;3.98;82.18
35848;BME280;22332;51.954;20.118;2023-11-19T10:57:11;99822.77;;;4.04;82.14
35848;BME280;22332;51.954;20.118;2023-11-19T11:00:21;99819.52;;;4.07;82.09
35848;BME280;22332;51.954;20.118;2023-11-19T11:03:33;99811.02;;;4.10;81.81
35848;BME280;22332;51.954;20.118;2023-11-19T11:06:40;99806.83;;;4.03;81.69
35848;BME280;22332;51.954;20.118;2023-11-19T11:09:46;99799.84;;;4.00;81.86
35848;BME280;22332;51.954;20.118;2023-11-19T11:12:53;99793.23;;;3.94;81.80
35848;BME280;22332;51.954;20.118;2023-11-19T11:16:03;99784.84;;;3.91;81.99
35848;BME280;22332;51.954;20.118;2023-11-19T11:19:12;99769.23;;;3.90;82.15
35848;BME280;22332;51.954;20.118;2023-11-19T11:22:18;99764.44;;;3.85;81.98
35848;BME280;22332;51.954;20.118;2023-11-19T11:25:35;99755.65;;;3.82;82.04
35848;BME280;22332;51.954;20.118;2023-11-19T11:28:48;99747.88;;;3.83;81.93
35848;BME280;22332;51.954;20.118;2023-11-19T11:32:00;99740.76;;;3.90;82.03
35848;BME280;22332;51.954;20.118;2023-11-19T11:35:27;99732.95;;;3.96;81.72
35848;BME280;22332;51.954;20.118;2023-11-19T11:38:38;99729.98;;;4.00;82.03
35848;BME280;22332;51.954;20.118;2023-11-19T11:41:46;99728.55;;;4.04;81.75
35848;BME280;22332;51.954;20.118;2023-11-19T11:45:01;99724.39;;;4.02;81.21
35848;BME280;22332;51.954;20.118;2023-11-19T11:48:13;99717.60;;;3.94;81.66
35848;BME280;22332;51.954;20.118;2023-11-19T11:55:07;99706.34;;;3.90;81.58
35848;BME280;22332;51.954;20.118;2023-11-19T11:58:15;99703.48;;;3.86;81.70
35848;BME280;22332;51.954;20.118;2023-11-19T12:01:22;99706.41;;;3.78;81.58
35848;BME280;22332;51.954;20.118;2023-11-19T12:04:32;99698.88;;;3.73;81.72
35848;BME280;22332;51.954;20.118;2023-11-19T12:07:39;99695.55;;;3.73;81.82
35848;BME280;22332;51.954;20.118;2023-11-19T12:10:47;99692.22;;;3.77;81.92
35848;BME280;22332;51.954;20.118;2023-11-19T12:13:56;99689.52;;;3.82;81.77
35848;BME280;22332;51.954;20.118;2023-11-19T12:20:45;99676.38;;;3.84;81.86
35848;BME280;22332;51.954;20.118;2023-11-19T12:23:51;99675.05;;;3.87;81.91
35848;BME280;22332;51.954;20.118;2023-11-19T12:26:56;99665.17;;;3.89;81.75
35848;BME280;22332;51.954;20.118;2023-11-19T12:30:03;99657.79;;;3.89;81.68
35848;BME280;22332;51.954;20.118;2023-11-19T12:33:11;99659.20;;;3.87;81.96
35848;BME280;22332;51.954;20.118;2023-11-19T12:36:17;99654.34;;;3.90;82.11
35848;BME280;22332;51.954;20.118;2023-11-19T12:39:22;99651.66;;;3.93;81.87
35848;BME280;22332;51.954;20.118;2023-11-19T12:42:37;99645.70;;;3.93;81.72
35848;BME280;22332;51.954;20.118;2023-11-19T12:45:43;99640.48;;;3.92;81.85
35848;BME280;22332;51.954;20.118;2023-11-19T12:48:49;99634.17;;;3.92;81.70
35848;BME280;22332;51.954;20.118;2023-11-19T12:51:55;99627.38;;;3.91;81.81
35848;BME280;22332;51.954;20.118;2023-11-19T12:55:00;99625.23;;;3.87;81.61
35848;BME280;22332;51.954;20.118;2023-11-19T12:58:06;99619.77;;;3.79;81.65
35848;BME280;22332;51.954;20.118;2023-11-19T13:01:17;99619.28;;;3.76;82.09
35848;BME280;22332;51.954;20.118;2023-11-19T13:04:23;99615.67;;;3.71;82.14
35848;BME280;22332;51.954;20.118;2023-11-19T13:07:33;99611.10;;;3.68;82.23
35848;BME280;22332;51.954;20.118;2023-11-19T13:10:52;99609.69;;;3.69;82.39
35848;BME280;22332;51.954;20.118;2023-11-19T13:13:59;99601.09;;;3.70;82.49
35848;BME280;22332;51.954;20.118;2023-11-19T13:17:05;99595.52;;;3.72;82.34
35848;BME280;22332;51.954;20.118;2023-11-19T13:20:11;99586.88;;;3.68;82.33
35848;BME280;22332;51.954;20.118;2023-11-19T13:23:18;99576.79;;;3.64;82.46
35848;BME280;22332;51.954;20.118;2023-11-19T13:26:24;99570.31;;;3.55;82.27
35848;BME280;22332;51.954;20.118;2023-11-19T13:29:30;99560.20;;;3.47;82.45
35848;BME280;22332;51.954;20.118;2023-11-19T13:32:35;99551.95;;;3.41;82.47
35848;BME280;22332;51.954;20.118;2023-11-19T13:35:42;99546.27;;;3.33;82.50
35848;BME280;22332;51.954;20.118;2023-11-19T13:38:47;99541.45;;;3.27;82.50
35848;BME280;22332;51.954;20.118;2023-11-19T13:41:53;99531.89;;;3.24;82.54
35848;BME280;22332;51.954;20.118;2023-11-19T13:44:58;99531.09;;;3.25;82.52
35848;BME280;22332;51.954;20.118;2023-11-19T13:48:04;99532.63;;;3.28;82.59
35848;BME280;22332;51.954;20.118;2023-11-19T13:51:09;99536.00;;;3.30;82.51
35848;BME280;22332;51.954;20.118;2023-11-19T13:54:15;99539.77;;;3.31;82.45
35848;BME280;22332;51.954;20.118;2023-11-19T13:57:20;99536.80;;;3.30;82.44
35848;BME280;22332;51.954;20.118;2023-11-19T14:00:26;99536.61;;;3.30;82.57
35848;BME280;22332;51.954;20.118;2023-11-19T14:03:31;99530.94;;;3.27;82.43
35848;BME280;22332;51.954;20.118;2023-11-19T14:06:37;99524.97;;;3.23;82.54
35848;BME280;22332;51.954;20.118;2023-11-19T14:09:44;99531.06;;;3.19;82.43
35848;BME280;22332;51.954;20.118;2023-11-19T14:12:50;99546.55;;;3.14;82.57
35848;BME280;22332;51.954;20.118;2023-11-19T14:15:56;99512.71;;;3.09;82.55
35848;BME280;22332;51.954;20.118;2023-11-19T14:19:01;99492.92;;;3.06;82.80
35848;BME280;22332;51.954;20.118;2023-11-19T14:22:07;99497.33;;;3.01;82.73
35848;BME280;22332;51.954;20.118;2023-11-19T14:25:13;99503.40;;;3.02;82.83
35848;BME280;22332;51.954;20.118;2023-11-19T14:28:18;99497.88;;;3.07;82.89
35848;BME280;22332;51.954;20.118;2023-11-19T14:31:27;99496.42;;;3.12;82.84
35848;BME280;22332;51.954;20.118;2023-11-19T14:34:33;99494.36;;;3.14;82.83
35848;BME280;22332;51.954;20.118;2023-11-19T14:37:38;99488.47;;;3.13;82.80
35848;BME280;22332;51.954;20.118;2023-11-19T14:40:44;99478.55;;;3.09;82.78
35848;BME280;22332;51.954;20.118;2023-11-19T14:43:49;99476.90;;;3.02;82.88
35848;BME280;22332;51.954;20.118;2023-11-19T14:46:55;99483.05;;;2.95;82.98
35848;BME280;22332;51.954;20.118;2023-11-19T14:50:05;99487.06;;;2.89;83.08
35848;BME280;22332;51.954;20.118;2023-11-19T14:53:11;99482.06;;;2.83;83.29
35848;BME280;22332;51.954;20.118;2023-11-19T14:56:17;99477.81;;;2.80;83.44
35848;BME280;22332;51.954;20.118;2023-11-19T14:59:22;99471.83;;;2.82;83.46
35848;BME280;22332;51.954;20.118;2023-11-19T15:02:30;99467.79;;;2.88;83.48
35848;BME280;22332;51.954;20.118;2023-11-19T15:05:36;99473.86;;;2.94;83.41
35848;BME280;22332;51.954;20.118;2023-11-19T15:08:41;99464.59;;;2.95;83.37
35848;BME280;22332;51.954;20.118;2023-11-19T15:11:49;99460.82;;;2.94;83.56
35848;BME280;22332;51.954;20.118;2023-11-19T15:14:54;99451.20;;;2.91;83.41
35848;BME280;22332;51.954;20.118;2023-11-19T15:18:00;99453.42;;;2.88;83.64
35848;BME280;22332;51.954;20.118;2023-11-19T15:21:06;99461.80;;;2.87;83.47
35848;BME280;22332;51.954;20.118;2023-11-19T15:24:12;99461.65;;;2.80;83.56
35848;BME280;22332;51.954;20.118;2023-11-19T15:27:18;99458.62;;;2.80;83.70
35848;BME280;22332;51.954;20.118;2023-11-19T15:30:23;99454.13;;;2.79;84.01
35848;BME280;22332;51.954;20.118;2023-11-19T15:33:30;99455.25;;;2.81;84.02
35848;BME280;22332;51.954;20.118;2023-11-19T15:36:36;99456.77;;;2.84;84.01
35848;BME280;22332;51.954;20.118;2023-11-19T15:39:42;99456.84;;;2.85;83.98
35848;BME280;22332;51.954;20.118;2023-11-19T15:42:47;99452.23;;;2.87;84.13
35848;BME280;22332;51.954;20.118;2023-11-19T15:45:53;99447.27;;;2.90;84.32
35848;BME280;22332;51.954;20.118;2023-11-19T15:48:58;99451.79;;;2.89;84.14
35848;BME280;22332;51.954;20.118;2023-11-19T15:52:05;99446.58;;;2.84;84.18
35848;BME280;22332;51.954;20.118;2023-11-19T15:55:11;99441.02;;;2.83;84.30
35848;BME280;22332;51.954;20.118;2023-11-19T15:58:17;99436.27;;;2.83;84.28
35848;BME280;22332;51.954;20.118;2023-11-19T16:01:22;99429.89;;;2.86;84.30
35848;BME280;22332;51.954;20.118;2023-11-19T16:04:28;99427.11;;;2.90;84.21
35848;BME280;22332;51.954;20.118;2023-11-19T16:07:33;99420.56;;;2.90;84.30
35848;BME280;22332;51.954;20.118;2023-11-19T16:10:40;99422.77;;;2.91;84.06
35848;BME280;22332;51.954;20.118;2023-11-19T16:13:47;99418.98;;;2.92;84.17
35848;BME280;22332;51.954;20.118;2023-11-19T16:16:52;99417.60;;;2.90;84.33
35848;BME280;22332;51.954;20.118;2023-11-19T16:19:58;99413.10;;;2.85;84.25
35848;BME280;22332;51.954;20.118;2023-11-19T16:23:04;99412.34;;;2.79;84.19
35848;BME280;22332;51.954;20.118;2023-11-19T16:26:09;99404.05;;;2.75;84.40
35848;BME280;22332;51.954;20.118;2023-11-19T16:29:16;99406.81;;;2.71;84.44